Weather observations for the past three days for
Appleton Municipal Airport
Metric (Imperial)
Date Time (cdt) Wind (kph) Vis. (km) Weather Sky Cond. Temperature (ºC) Relative Humidity Wind Chill (°C) Heat Index (°C) Pressure Precipitation (cm)
Air Dwpt 6 hour altimeter (cm) sea level (mb) 1 hr 3 hr 6 hr
Max. Min.
08 04:35 SW 7 16.09 Partly Cloudy SCT170 5.9 -3.6 51% 5 75.57 0.0
08 04:15 SW 9 16.09 Fair CLR 6.1 -3.5 51% 4 75.57 0.0
08 03:55 SW 11 16.09 Partly Cloudy SCT180 6.5 -3.5 49% 5 75.57 0.0
08 03:35 SW 6 16.09 Partly Cloudy SCT180 5.8 -3.3 52% 75.57 0.0
08 03:15 SW 9 16.09 Partly Cloudy SCT170 6.5 -3.1 51% 5 75.59 0.0
08 02:55 SW 9 16.09 Mostly Cloudy BKN170 6.6 -2.9 51% 5 75.59 0.0
08 02:35 SW 9 16.09 A Few Clouds FEW170 6.4 -2.8 52% 5 75.59 0.0
08 02:15 SW 9 16.09 Fair CLR 5.9 -3.1 53% 4 75.59 0.0
08 01:55 SW 9 14.48 Fair CLR 6.2 -3.6 50% 5 75.62 0.0
08 01:35 SW 9 14.48 Fair CLR 6.2 -3.7 49% 5 75.62 0.0
08 01:15 SW 7 16.09 Fair CLR 6 -3.4 51% 5 75.62 0.0
08 00:55 SW 9 16.09 Fair CLR 7.5 -3.8 15.9 7.5 45% 6 75.62 0.0
08 00:35 SW 11 16.09 Fair CLR 8.3 -3.7 43% 7 75.62 0.0
08 00:15 SW 11 14.48 Fair CLR 7.9 -2.9 47% 6 75.64 0.0
07 23:55 S 13 16.09 Fair CLR 8.2 -2.9 46% 6 75.64 0.0
07 23:35 SW 11 16.09 Fair CLR 8.4 -2.2 48% 7 75.64 0.0
07 23:15 S 13 16.09 Fair CLR 8.4 -1.9 49% 7 75.64 0.0
07 22:55 SW 11 16.09 Fair CLR 9.8 -2.9 41% 8 75.67 0.0
07 22:35 SW 9 16.09 Fair CLR 10.1 -2.9 40% 75.67 0.0
07 22:15 SW 9 16.09 A Few Clouds FEW290 8.9 -0.1 54% 8 75.67 0.0
07 21:55 SW 9 16.09 Fair CLR 11 -1.6 42% 75.67 0.0
07 21:35 SW 9 16.09 Fair CLR 11.4 -1.4 41% 75.67 0.0
07 21:15 SW 9 16.09 Fair CLR 11.6 -4.6 32% 75.67 0.0
07 20:55 SW 11 14.48 Fair CLR 11 -4.4 34% 75.67 0.0
07 20:35 W 11 16.09 A Few Clouds FEW210 11.7 -4.4 32% 75.64 0.0
07 20:15 W 13 14.48 Partly Cloudy SCT210 14 -4.9 27% 75.67 0.0
07 19:55 W 19 16.09 Partly Cloudy SCT210 15.5 -6.2 22% 75.64 0.0
07 19:35 W 20 16.09 A Few Clouds FEW220 15.5 -5.5 23% 75.67 0.0
07 19:15 NW 20 16.09 Fair CLR 15.4 -5.3 24% 75.67 0.0
07 18:55 NW 17 16.09 Fair CLR 16 -5.6 16.9 13.2 22% 75.67 0.0
07 18:35 W 22 16.09 Fair CLR 16.1 -5.6 22% 75.67 0.0
07 18:15 W 20 G 28 16.09 Fair CLR 16.4 -6.1 21% 75.69 0.0
07 17:55 W 15 16.09 Fair CLR 16.3 -6.7 20% 75.69 0.0
07 17:35 NW 30 16.09 Fair CLR 16.6 -6.5 20% 75.69 0.0
07 17:15 NW 28 G 35 16.09 Fair CLR 16.9 -6.5 20% 75.69 0.0
07 16:55 NW 26 G 33 16.09 Fair CLR 16.4 -6.5 20% 75.72 0.0
07 16:35 W 19 G 35 16.09 Fair CLR 16.5 -6.4 20% 75.72 0.0
07 16:15 NW 17 G 37 16.09 Fair CLR 16.2 -6.3 21% 75.72 0.0
07 15:55 NW 24 G 43 16.09 Fair CLR 16 -5.6 22% 75.74 0.0
07 15:35 W 15 G 39 16.09 Fair CLR 15.5 -5.9 23% 75.74 0.0
07 15:15 NW 19 G 39 16.09 Fair CLR 15.8 -5.3 23% 75.77 0.0
07 14:55 W 20 G 28 16.09 A Few Clouds FEW080 15.6 -5 24% 75.79 0.0
07 14:35 NW 20 G 30 16.09 A Few Clouds FEW080 15.3 -5.2 24% 75.79 0.0
07 14:15 W 15 16.09 Fair CLR 14.5 -6 24% 75.79 0.0
07 13:55 Vrbl 11 16.09 Fair CLR 13.5 -6.5 25% 75.82 0.0
07 13:35 NW 26 G 33 16.09 Fair CLR 14.4 -5.6 25% 75.82 0.0
07 13:15 NW 20 G 31 16.09 Fair CLR 13.8 -7.5 22% 75.84 0.0
07 12:55 NW 24 G 37 16.09 Fair CLR 13.5 -5.6 13.6 -2.8 26% 75.84 0.0
07 12:35 N 17 16.09 A Few Clouds FEW070 13.1 -6 26% 75.87 0.0
07 11:55 Vrbl 7 16.09 A Few Clouds FEW070 12.1 -6.4 27% 75.9 0.0
07 11:35 Vrbl 7 16.09 Fair CLR 11.1 -6.8 28% 75.92 0.0
07 11:15 W 9 16.09 Fair CLR 12.1 -5.7 29% 75.92 0.0
07 10:55 NW 9 16.09 Fair CLR 11.7 -6.1 28% 75.92 0.0
07 10:35 Calm 16.09 Fair CLR 10.1 -6.7 30% 75.92 0.0
07 10:15 Vrbl 9 16.09 Fair CLR 10.6 -6.1 31% 75.92 0.0
07 09:55 S 7 16.09 Fair CLR 10 -5.5 33% 9 75.92 0.0
07 09:35 SW 13 16.09 Fair CLR 9.5 -4.1 38% 8 75.95 0.0
07 09:15 S 6 16.09 Fair CLR 8.9 -3 43% 75.95 0.0
07 08:55 S 13 16.09 Fair CLR 7.5 -2.9 48% 5 75.92 0.0
07 08:35 S 9 16.09 Fair CLR 6.9 -2.9 50% 5 75.92 0.0
07 08:15 Vrbl 7 16.09 Fair CLR 6 -1.9 57% 5 75.92 0.0
07 07:55 Calm 16.09 Fair CLR 2.2 -1.7 76% 75.92 0.0
07 07:35 Calm 16.09 Fair CLR 0.5 -2.2 82% 75.92 0.0
07 07:15 Calm 14.48 Fair CLR -1.9 -3.1 92% 75.92 0.0
07 06:55 Calm 12.87 Fair CLR -3.5 -5 0.5 -4.9 89% 75.92 0.0
07 06:35 Calm 12.87 Fair CLR -3.6 -5.1 89% 75.92 0.0
07 06:15 Calm 12.87 Fair CLR -4.1 -5.5 90% 75.92 0.0
07 05:55 Calm 14.48 Fair CLR -2.9 -4.2 91% 75.92 0.0
07 05:35 Calm 16.09 Fair CLR -3.3 -4.4 92% 75.92 0.0
07 05:15 S 6 16.09 Fair CLR -3.2 -4.7 90% 75.92 0.0
07 04:55 E 6 16.09 Fair CLR -3.1 -5.4 84% 75.95 0.0
07 04:35 S 6 16.09 A Few Clouds FEW075 -0.9 -4.4 77% 75.95 0.0
07 04:15 S 6 16.09 Mostly Cloudy BKN070 -0.4 -3.5 80% 75.95 0.0
07 03:55 S 6 16.09 Overcast OVC070 -0.1 -3.3 79% 75.97 0.0
07 03:35 S 6 16.09 Overcast OVC075 0.1 -3.9 75% 75.97 0.0
07 03:15 Calm 16.09 Overcast OVC075 -0.9 -4.5 77% 75.97 0.0
07 02:55 S 9 16.09 Mostly Cloudy BKN075 -0.2 -4.7 72% -3 75.97 0.0
07 02:35 S 7 16.09 Overcast OVC075 0.1 -4.3 73% -2 76 0.0
07 02:15 S 7 16.09 Overcast OVC075 -0.8 -4.5 76% -3 76 0.0
07 01:55 S 9 16.09 Partly Cloudy SCT075 -0.8 -3.2 84% -4 76.02 0.0
07 01:35 SE 7 16.09 Fair CLR -2.5 -5.4 81% -5 76.02 0.0
07 01:15 E 6 12.87 Fair CLR -3 -5.6 82% 76.05 0.0
07 00:55 SE 7 16.09 Fair CLR -0.6 -4 8.3 -1.1 78% -3 76.05 0.0
07 00:35 SE 7 16.09 Fair CLR -1 -3.8 82% -3 76.05 0.0
07 00:15 SE 7 16.09 Fair CLR 0.6 -2.5 80% -1 76.07 0.0
06 23:55 E 9 16.09 Fair CLR -0.1 -4.5 73% -3 76.07 0.0
06 23:35 E 6 16.09 Fair CLR 1 -4.8 66% 76.1 0.0
06 23:15 E 6 16.09 Fair CLR 1.6 -4.8 63% 76.12 0.0
06 22:55 NE 6 16.09 Fair CLR 1.1 -5.9 60% 76.12 0.0
06 22:35 NE 6 14.48 Fair CLR 1 -5.7 61% 76.12 0.0
06 22:15 NE 7 16.09 Fair CLR 1.6 -5.8 58% -0 76.12 0.0
06 21:55 NE 9 6.44 Fair with Haze CLR 2.4 -5.4 57% 0 76.12 0.0
06 21:35 NE 9 16.09 Fair CLR 2.5 -5.2 57% 0 76.12 0.0
06 21:15 NE 9 12.87 Fair CLR 3.7 -5.6 51% 2 76.1 0.0
06 20:55 NE 9 16.09 Fair CLR 3.9 -5.5 51% 2 76.1 0.0
06 20:35 N 9 16.09 Fair CLR 4.8 -5.3 48% 3 76.1 0.0
06 20:15 N 11 16.09 Fair CLR 6 -5.1 45% 4 76.1 0.0
06 19:55 N 15 16.09 A Few Clouds FEW075 7.2 -5.5 40% 5 76.1 0.0
06 19:35 NW 19 16.09 Mostly Cloudy BKN075 7.8 -5.3 39% 5 76.1 0.0
06 19:15 N 19 16.09 Overcast OVC075 7.8 -5.5 39% 5 76.12 0.0
06 18:55 NW 15 16.09 Overcast OVC075 8 -5.5 8.7 5.7 38% 6 76.12 0.0
06 18:35 NW 17 16.09 Overcast OVC075 8.1 -5.3 39% 6 76.15 0.0
06 18:15 NW 20 16.09 Overcast OVC075 8.2 -5.4 38% 5 76.15 0.0
06 17:55 NW 19 16.09 Overcast OVC070 8.1 -5.7 37% 5 76.17 0.0
06 17:35 NW 15 16.09 Overcast OVC070 8.1 -5.3 39% 6 76.17 0.0
06 17:15 NW 24 16.09 Overcast OVC065 8.3 -5.2 38% 5 76.17 0.0
06 16:55 W 22 G 33 16.09 Overcast OVC060 8 -4.9 40% 5 76.2 0.0
06 16:35 NW 20 16.09 Overcast OVC060 7.8 -5.3 39% 5 76.2 0.0
06 16:15 W 26 G 31 16.09 Overcast OVC055 8.1 -4.9 40% 5 76.23 0.0
06 15:55 NW 20 16.09 Overcast OVC055 7.7 -4.9 41% 5 76.23 0.0
06 15:35 W 28 16.09 Overcast BKN050 OVC060 7.8 -4.9 41% 4 76.25 0.0
06 15:15 W 19 16.09 Overcast OVC050 7.1 -5.1 42% 4 76.25 0.0
06 14:55 NW 15 16.09 Overcast OVC050 7.4 -5 41% 5 76.25 0.0
06 14:35 NW 30 16.09 Overcast OVC050 7.5 -5.2 40% 4 76.28 0.0
06 14:15 NW 24 16.09 Overcast OVC050 7.6 -5.1 40% 4 76.28 0.0
06 13:55 NW 17 G 37 16.09 Overcast OVC049 6.7 -5.3 42% 4 76.28 0.0
06 13:35 NW 15 G 33 16.09 Overcast OVC048 6.5 -4.7 45% 4 76.3 0.0
06 13:15 NW 22 G 35 16.09 Overcast OVC046 6.5 -4.7 45% 3 76.3 0.0
06 12:55 NW 15 16.09 Overcast OVC044 5.8 -5.1 5.8 2.7 46% 3 76.33 0.0
06 12:35 NW 19 16.09 Overcast OVC041 5.4 -4.8 48% 2 76.35 0.0
06 12:15 NW 19 16.09 Overcast OVC041 5.3 -4.8 48% 2 76.35 0.0
06 11:55 N 15 16.09 Overcast OVC041 4.9 -5.3 48% 2 76.35 0.0
06 11:35 NW 19 G 31 16.09 Overcast OVC042 5.1 -5.4 47% 2 76.38 0.0
06 11:15 N 17 16.09 Overcast OVC044 5 -5.5 47% 2 76.38 0.0
06 10:55 NW 19 16.09 Overcast OVC046 4.8 -5.7 47% 1 76.35 0.0
06 10:35 NW 22 16.09 Overcast FEW039 OVC048 4.7 -5.3 49% 1 76.38 0.0
06 10:15 NW 20 16.09 Overcast OVC048 4.3 -5.4 50% 1 76.35 0.0
06 09:55 N 17 16.09 Overcast OVC048 4 -4.6 54% 1 76.35 0.0
06 09:35 NW 19 16.09 Overcast OVC048 3.8 -4.6 55% 0 76.35 0.0
06 09:15 N 15 16.09 Overcast OVC048 3.7 -3.4 60% 1 76.35 0.0
06 08:55 NW 15 16.09 Overcast OVC048 3.3 -3.8 60% 0 76.35 0.0
06 08:35 NW 15 16.09 Overcast OVC048 3.1 -3.8 61% -0 76.35 0.0
06 08:15 NW 15 16.09 Overcast OVC047 3 -3.8 61% -0 76.33 0.0
06 07:55 N 15 16.09 Overcast OVC047 3 -4 60% -0 76.3 0.0
06 07:35 NW 13 14.48 Overcast OVC048 3 -4.2 60% 0 76.3 0.0
06 07:15 NW 11 16.09 Overcast OVC048 2.7 -3.4 65% 0 76.28 0.0
06 06:55 N 9 16.09 Overcast OVC048 2.6 -3 3.4 0.2 67% 0 76.25 0.0
06 06:35 NW 9 14.48 Overcast OVC049 2.5 -3.1 67% 0 76.23 0.0
06 06:15 NW 11 16.09 Overcast OVC049 2.6 -3.6 64% -0 76.23 0.0
06 05:55 NW 11 16.09 Overcast OVC050 2.7 -3.9 62% 0 76.2 0.0
06 05:35 N 9 16.09 Overcast OVC050 2.6 -3.9 63% 0 76.2 0.0
06 05:15 N 9 16.09 Overcast OVC049 2.8 -3.8 62% 1 76.2 0.0
06 04:55 NW 11 16.09 Overcast OVC050 2.9 -3.7 62% 0 76.2 0.0
06 04:35 NW 15 16.09 Overcast OVC050 3 -3.6 62% -0 76.2 0.0
06 04:15 NW 11 16.09 Overcast OVC050 2.9 -3.2 65% 0 76.17 0.0
06 03:55 NW 13 16.09 Overcast OVC050 3.1 -3.1 64% 0 76.17 0.0
06 03:35 NW 13 16.09 Overcast OVC050 3.1 -3.2 64% 0 76.17 0.0
06 03:15 NW 13 16.09 Overcast OVC050 3.1 -3.1 64% 0 76.17 0.0
06 02:55 NW 17 16.09 Overcast OVC055 3.3 -3.7 61% -0 76.17 0.0
06 02:35 N 19 16.09 Overcast OVC050 3.3 -3.7 61% -1 76.15 0.0
06 02:15 NW 15 16.09 Overcast OVC050 3.2 -3.2 63% -0 76.17 0.0
06 01:55 NW 13 16.09 Overcast OVC055 2.4 -2.7 69% -1 76.17 0.0
06 01:35 NW 9 16.09 Overcast OVC055 1.3 -3.2 72% -1 76.15 0.0
06 01:15 NW 11 16.09 Overcast OVC055 0.6 -3.9 72% -2 76.17 0.0
06 00:55 NW 15 16.09 Mostly Cloudy BKN055 0.6 -4.3 7.3 0.4 70% -3 76.17 0.0
06 00:35 NW 11 16.09 Partly Cloudy SCT055 1 -4.3 68% -2 76.15 0.0
06 00:15 NW 13 16.09 Fair CLR 1.2 -4.4 67% -2 76.15 0.0
05 23:55 NW 11 16.09 Fair CLR 1.5 -4.4 65% -1 76.12 0.0
05 23:35 N 13 16.09 Partly Cloudy SCT070 2 -4.5 62% -1 76.15 0.0
05 23:15 NW 15 16.09 Overcast OVC070 3.3 -4 59% 0 76.15 0.0
05 22:55 N 13 16.09 Overcast OVC070 3.7 -3.6 59% 1 76.12 0.0
05 22:35 N 9 16.09 Overcast OVC070 3.5 -3.7 60% 1 76.1 0.0
05 22:15 N 11 16.09 Overcast OVC070 3.4 -4 59% 1 76.1 0.0
05 21:55 N 13 14.48 Mostly Cloudy BKN075 2.8 -4.2 60% -0 76.07 0.0
05 21:35 N 15 14.48 Mostly Cloudy BKN075 3.4 -4.3 57% 0 76.07 0.0
05 21:15 N 11 12.87 Overcast OVC075 3.5 -4.2 57% 1 76.05 0.0
05 20:55 N 17 9.66 Overcast with Haze OVC075 4.6 -5 50% 1 76.05 0.0
05 20:35 N 17 12.87 Mostly Cloudy FEW060 BKN075 5 -5.3 48% 2 76.02 0.0
05 20:15 N 20 12.87 Partly Cloudy SCT065 5.9 -5.1 45% 3 76.02 0.0
05 19:55 N 24 14.48 Partly Cloudy SCT070 6.4 -5.5 43% 3 76 0.0
05 19:35 N 28 14.48 Overcast OVC065 7.2 -5.5 40% 3 76 0.0
05 19:15 N 30 12.87 Mostly Cloudy BKN065 7.2 -5.2 41% 3 76 0.0
05 18:55 NW 26 G 39 14.48 Mostly Cloudy BKN065 8.2 -5.3 10.3 7.7 38% 5 75.97 0.0
05 18:35 NW 28 16.09 Mostly Cloudy FEW060 BKN075 7.8 -5.1 40% 4 75.97 0.0
05 18:15 N 28 16.09 Overcast OVC070 8.6 -5.1 38% 5 75.97 0.0
05 17:55 NW 30 12.87 Overcast OVC060 8 -5 40% 4 75.97 0.0
05 17:35 N 31 14.48 Overcast OVC065 8 -5.3 39% 4 75.95 0.0
05 17:15 N 24 14.48 Overcast BKN060 OVC070 8.1 -5.1 39% 5 75.95 0.0
05 16:55 NW 20 14.48 Overcast OVC060 8.4 -4.8 39% 6 75.95 0.0
05 16:35 N 28 16.09 Overcast OVC060 8.3 -5.2 38% 5 75.95 0.0
05 16:15 N 22 16.09 Overcast OVC065 8.5 -4.8 39% 6 75.95 0.0
05 15:55 NW 30 14.48 Overcast OVC065 9 -5.3 36% 6 75.95 0.0
05 15:35 NW 33 G 43 16.09 Overcast and Breezy OVC065 9.4 -5.2 36% 6 75.92 0.0
05 15:15 NW 30 G 39 14.48 Overcast OVC060 10 -4.8 35% 7 75.92 0.0
05 14:55 NW 28 16.09 Overcast BKN060 OVC075 9.1 -5.5 35% 6 75.92 0.0
05 14:35 NW 31 G 41 16.09 Overcast BKN060 OVC075 9.2 -5.6 35% 6 75.92 0.0
05 14:15 NW 35 G 48 16.09 Overcast and Breezy OVC065 9.2 -5.6 35% 6 75.92 0.0
05 13:55 NW 31 G 46 16.09 Overcast OVC060 8.8 -6 35% 5 75.92 0.0
05 13:35 NW 30 16.09 Overcast OVC065 9.2 -5.9 34% 6 75.92 0.0
05 13:15 NW 30 G 39 16.09 Overcast OVC070 9.3 -6.2 33% 6 75.92 0.0
05 12:55 NW 31 16.09 Overcast OVC070 9.7 -6.2 9.7 -0.3 32% 6 75.9 0.0
05 12:35 NW 28 16.09 Overcast OVC065 9 -6 34% 6 75.92 0.0
05 12:15 NW 33 G 43 16.09 Overcast and Breezy OVC060 8.9 -5.7 35% 5 75.92 0.0
05 11:55 NW 30 G 43 16.09 Overcast OVC060 8.7 -5.9 35% 5 75.9 0.0
05 11:35 NW 24 16.09 Overcast OVC065 8.5 -6.1 35% 5 75.9 0.0
05 11:15 NW 33 G 43 14.48 Overcast and Breezy OVC060 8.6 -6 35% 5 75.9 0.0
05 10:55 NW 30 G 41 16.09 Mostly Cloudy BKN060 8.5 -6.3 35% 5 75.9 0.0
05 10:35 NW 30 16.09 Partly Cloudy SCT055 9.1 -6 34% 6 75.87 0.0
05 10:15 NW 28 G 44 16.09 Partly Cloudy FEW049 SCT055 8.6 -5.9 36% 5 75.9 0.0
05 09:55 NW 30 G 39 16.09 A Few Clouds FEW039 7.7 -4.8 41% 4 75.9 0.0
05 09:35 NW 28 16.09 Fair CLR 7.5 -2.8 48% 4 75.87 0.0
05 09:15 W 24 14.48 Fair CLR 6.8 -2.1 53% 3 75.87 0.0
05 08:55 NW 15 14.48 Fair CLR 5.7 -1.2 62% 3 75.84 0.0
05 08:35 NW 17 14.48 Fair CLR 5.1 -1.6 62% 2 75.84 0.0
05 08:15 NW 11 14.48 Fair CLR 4.4 -0.6 70% 2 75.82 0.0
05 07:55 W 7 12.87 Fair CLR 3.4 -0.6 75% 2 75.82 0.0
05 07:35 W 7 11.27 Fair CLR 2.5 -0.5 81% 1 75.79 0.0
05 07:15 Calm 12.87 Fair CLR 1.2 -1.1 85% 75.77 0.0
05 06:55 W 7 11.27 Fair CLR -0.7 -2.7 1.5 -2.1 87% -3 75.74 0.0
05 06:35 W 7 11.27 Fair CLR -1.3 -3.1 88% -4 75.74 0.0
05 05:55 NW 13 12.87 Partly Cloudy FEW060 SCT080 -0.9 -2.7 88% -5 75.72 0.0
05 05:35 NW 13 12.87 A Few Clouds FEW080 -0.2 -2.4 85% -4 75.72 0.0
05 05:15 NW 13 12.87 Fair CLR -1.3 -3.1 88% -5 75.72 0.0
05 04:55 NW 9 12.87 Fair CLR -2.1 -3.9 88% -5 75.72 0.0
Date Time (cdt) Wind (kph) Vis. (km) Weather Sky Cond. Air Dwpt Max. Min. Relative Humidity Wind Chill (°C) Heat Index (°C) altimeter (cm) sea level (mb) 1 hr 3 hr 6 hr
6 hour
Temperature (ºC) Pressure Precipitation (cm)